Latest Weather Observations for Keith West

IDS60801

Issued at 3:42 pm CST Saturday 4 July 2020 (issued every 10 minutes, with the page automatically refreshed every 10 minutes)

About weather observations | Map of weather stations | Latest weather observations for SA | Other Formats
Station Details ID: 025557 Name: MUNKORA Lat: -36.11 Lon: 140.33 Height: 27.0 m
Data from the previous 72 hours. | See also: Recent months at Keith West
Date/Time
CST
Temp
°C
App
Temp
°C
Dew
Point
°C
Rel
Hum
%
Delta-T
°C
Wind Press
QNH
hPa
Press
MSL
hPa
Rain since
9am
mm
Dir  Spd
km/h
Gust
km/h
Spd
kts
Gust
kts
04/03:30pm 12.6 8.3 9.2 80 1.7 SW 22 35 12 19 1027.9 1028.0 0.2
04/03:00pm 13.4 8.5 10.0 80 1.7 SW 26 39 14 21 1027.7 1027.8 0.2
04/02:30pm 13.5 9.5 10.5 82 1.6 WSW 22 30 12 16 1027.7 1027.8 0.2
04/02:00pm 13.6 9.4 11.0 84 1.4 WSW 24 33 13 18 1027.9 1028.0 0.2
04/01:30pm 13.3 7.9 9.4 77 2.0 SW 28 39 15 21 1027.9 1028.0 0.2
04/01:00pm 14.5 11.1 10.7 78 2.0 SW 19 24 10 13 1028.0 1028.1 0.0
04/12:30pm 14.0 10.1 9.6 75 2.2 SW 20 28 11 15 1028.2 1028.3 0.0
04/12:00pm 12.1 6.5 8.6 79 1.7 SW 28 37 15 20 1028.5 1028.6 0.0
04/11:30am 13.7 10.6 10.3 80 1.8 WSW 17 26 9 14 1028.6 1028.7 0.0
04/11:00am 14.0 11.2 11.3 84 1.4 WSW 17 24 9 13 1029.1 1029.2 0.0
04/10:30am 13.3 11.5 12.2 93 0.6 W 13 20 7 11 1029.3 1029.4 0.0
04/10:00am 11.7 9.3 11.4 98 0.2 W 15 22 8 12 1029.2 1029.3 0.0
04/09:30am 11.2 9.4 11.0 99 0.1 WNW 11 15 6 8 1028.9 1029.0 0.0
04/09:00am 9.7 7.6 9.6 99 0.0 NW 11 15 6 8 1028.8 1028.9 2.2
04/08:30am 9.2 7.3 9.1 99 0.0 NW 9 13 5 7 1028.7 1028.8 2.0
04/08:00am 7.5 5.8 7.4 99 0.0 NNW 6 7 3 4 1028.6 1028.7 2.0
04/07:30am 6.6 4.0 6.3 98 0.1 NNW 9 11 5 6 1028.5 1028.6 2.0
04/07:00am 7.9 5.6 7.6 98 0.1 NNW 9 11 5 6 1028.7 1028.8 2.0
04/06:30am 7.8 5.5 7.5 98 0.1 NW 9 13 5 7 1028.4 1028.5 1.8
04/06:00am 7.5 4.8 7.2 98 0.1 NW 11 13 6 7 1028.2 1028.3 1.8
04/05:30am 6.9 4.4 6.5 97 0.2 NNW 9 9 5 5 1028.0 1028.1 1.8
04/05:00am 6.4 4.2 6.0 97 0.2 NNW 7 9 4 5 1027.9 1028.0 1.8
04/04:30am 5.8 4.0 5.4 97 0.2 NNW 4 6 2 3 1028.1 1028.2 1.8
04/04:00am 5.8 3.4 5.4 97 0.2 NNW 7 9 4 5 1028.1 1028.2 1.8
04/03:30am 4.5 1.8 3.9 96 0.2 NW 7 9 4 5 1028.0 1028.1 1.8
04/03:00am 3.9 0.4 3.5 97 0.2 NW 11 13 6 7 1028.1 1028.2 1.8
04/02:30am 3.3 0.0 2.6 95 0.3 NNW 9 11 5 6 1028.0 1028.1 1.8
04/02:00am 4.6 1.9 3.6 93 0.4 W 7 7 4 4 1028.2 1028.3 1.8
04/01:30am 6.2 4.4 5.2 93 0.4 W 4 6 2 3 1028.0 1028.1 1.8
04/01:00am 6.1 4.1 4.6 90 0.6 WNW 4 4 2 2 1028.0 1028.1 1.8
04/12:30am 6.8 4.4 5.1 89 0.7 W 7 9 4 5 1028.1 1028.2 1.8
04/12:00am 7.5 4.7 5.1 85 1.1 SW 9 13 5 7 1028.3 1028.4 1.8
 
Date/Time
CST
Temp
°C
App
Temp
°C
Dew
Point
°C
Rel
Hum
%
Delta-T
°C
Wind Press
QNH
hPa
Press
MSL
hPa
Rain since
9am
mm
Dir  Spd
km/h
Gust
km/h
Spd
kts
Gust
kts
03/11:30pm 6.3 3.9 5.1 92 0.5 WSW 7 11 4 6 1028.2 1028.3 1.8
03/11:00pm 5.5 2.5 4.2 91 0.6 W 9 11 5 6 1028.4 1028.5 1.8
03/10:30pm 3.8 0.1 2.5 91 0.5 W 11 13 6 7 1028.2 1028.3 1.8
03/10:00pm 4.1 1.2 2.5 89 0.6 W 7 9 4 5 1028.1 1028.2 1.8
03/09:30pm 3.2 0.2 2.0 92 0.5 W 7 9 4 5 1027.9 1028.0 1.8
03/09:00pm 2.8 -1.1 0.9 87 0.7 W 11 13 6 7 1027.7 1027.8 1.8
03/08:30pm 3.9 0.5 1.6 85 0.9 W 9 13 5 7 1027.6 1027.7 1.8
03/08:00pm 5.2 2.4 2.2 81 1.2 WSW 6 6 3 3 1027.3 1027.4 1.8
03/07:30pm 5.8 3.0 3.0 82 1.2 WSW 7 11 4 6 1027.2 1027.3 1.8
03/07:00pm 6.0 3.1 2.8 80 1.3 WSW 7 9 4 5 1026.8 1026.9 1.8
03/06:30pm 7.2 4.1 3.8 79 1.4 SW 9 13 5 7 1026.4 1026.5 1.8
03/06:00pm 7.6 4.6 4.0 78 1.5 WSW 9 13 5 7 1026.1 1026.2 1.8
03/05:30pm 8.3 4.5 4.1 75 1.8 SW 13 19 7 10 1025.7 1025.8 1.8
03/05:00pm 9.1 4.4 5.1 76 1.8 SSW 19 37 10 20 1025.2 1025.3 1.6
03/04:30pm 9.8 5.4 5.0 72 2.2 SSW 17 24 9 13 1024.8 1024.9 1.6
03/04:00pm 10.2 5.4 5.4 72 2.2 SW 20 26 11 14 1024.2 1024.3 1.6
03/03:30pm 9.6 2.6 6.1 79 1.6 SW 32 46 17 25 1024.0 1024.1 1.6
03/03:28pm 9.8 3.6 6.2 78 1.7 SW 28 46 15 25 1023.9 1024.0 1.6
03/03:00pm 10.0 5.6 6.5 79 1.6 SW 19 28 10 15 1023.4 1023.5 1.6
03/02:30pm 10.4 5.8 6.4 76 1.9 SSW 20 30 11 16 1023.0 1023.1 1.6
03/02:00pm 11.5 6.7 7.4 76 2.0 SW 22 28 12 15 1022.5 1022.6 1.6
03/01:30pm 10.2 3.7 8.1 87 1.0 SSW 32 46 17 25 1022.4 1022.5 1.6
03/01:00pm 10.9 3.9 6.8 76 1.9 SW 33 46 18 25 1022.3 1022.4 0.8
03/12:30pm 12.1 6.1 8.8 80 1.6 SSW 30 43 16 23 1022.1 1022.2 0.8
03/12:23pm 11.3 4.8 8.2 81 1.5 SSW 32 50 17 27 1022.0 1022.1 0.8
03/12:00pm 11.8 5.1 8.3 79 1.7 SW 33 46 18 25 1021.7 1021.8 0.8
03/11:30am 11.9 5.9 8.7 81 1.6 SW 30 43 16 23 1021.5 1021.6 0.8
03/11:00am 12.4 7.0 9.6 83 1.4 SW 28 41 15 22 1021.1 1021.2 0.6
03/10:49am 11.7 6.2 9.3 85 1.2 SW 28 44 15 24 1020.9 1021.0 0.6
03/10:30am 12.1 9.3 11.2 94 0.5 W 17 20 9 11 1020.8 1020.9 0.4
03/10:00am 11.2 7.3 10.7 97 0.3 WNW 22 28 12 15 1020.7 1020.8 0.4
03/09:30am 10.3 5.7 9.8 97 0.3 NW 24 32 13 17 1020.0 1020.1 0.4
03/09:00am 9.5 5.1 9.0 97 0.2 NW 22 30 12 16 1019.9 1020.0 2.0
03/08:30am 9.1 4.6 8.5 96 0.3 NW 22 26 12 14 1019.6 1019.7 2.0
03/08:00am 8.3 4.2 7.7 96 0.3 NNW 19 24 10 13 1019.5 1019.6 2.0
03/07:30am 8.1 3.7 7.5 96 0.3 NNW 20 28 11 15 1019.5 1019.6 2.0
03/07:00am 8.1 3.9 7.5 96 0.3 NNW 19 22 10 12 1019.4 1019.5 2.0
03/06:30am 7.8 4.0 7.4 97 0.2 NNW 17 22 9 12 1019.1 1019.2 2.0
03/06:00am 7.8 4.0 7.4 97 0.2 NNW 17 20 9 11 1018.9 1019.0 1.8
03/05:30am 7.6 3.7 7.2 97 0.2 NNW 17 20 9 11 1018.9 1019.0 1.8
03/05:00am 7.0 3.7 6.6 97 0.2 N 13 17 7 9 1018.9 1019.0 1.8
03/04:30am 7.3 3.7 6.9 97 0.2 NNW 15 19 8 10 1019.0 1019.1 1.8
03/04:00am 7.1 3.1 6.8 98 0.1 NNW 17 20 9 11 1019.1 1019.2 1.8
03/03:30am 6.4 3.0 6.1 98 0.1 NNW 13 15 7 8 1019.4 1019.5 1.8
03/03:00am 6.3 2.9 6.0 98 0.1 N 13 15 7 8 1019.5 1019.6 1.8
03/02:30am 6.5 3.1 6.1 97 0.2 NNW 13 17 7 9 1019.6 1019.7 1.8
03/02:00am 7.1 3.5 6.8 98 0.1 NNW 15 20 8 11 1019.9 1020.0 1.8
03/01:30am 6.5 2.8 6.2 98 0.1 NNW 15 19 8 10 1019.9 1020.0 1.6
03/01:00am 6.3 2.9 6.0 98 0.1 NNW 13 15 7 8 1019.8 1019.9 1.6
03/12:30am 7.3 3.8 7.0 98 0.1 NW 15 22 8 12 1020.0 1020.1 1.6
03/12:00am 6.0 2.6 5.7 98 0.1 NNW 13 15 7 8 1020.0 1020.1 1.2
 
Date/Time
CST
Temp
°C
App
Temp
°C
Dew
Point
°C
Rel
Hum
%
Delta-T
°C
Wind Press
QNH
hPa
Press
MSL
hPa
Rain since
9am
mm
Dir  Spd
km/h
Gust
km/h
Spd
kts
Gust
kts
02/11:30pm 6.7 3.4 6.3 97 0.2 NNW 13 17 7 9 1019.9 1020.0 1.2
02/11:00pm 6.8 2.8 6.5 98 0.1 NNW 17 20 9 11 1019.9 1020.0 1.2
02/10:30pm 6.4 2.7 6.1 98 0.1 NNW 15 19 8 10 1019.8 1019.9 1.2
02/10:00pm 5.8 2.3 5.5 98 0.1 NNW 13 17 7 9 1019.8 1019.9 1.2
02/09:30pm 5.3 2.1 4.9 97 0.2 NNW 11 13 6 7 1019.7 1019.8 1.2
02/09:00pm 5.6 1.7 5.3 98 0.1 NW 15 17 8 9 1019.5 1019.6 1.2
02/08:30pm 5.2 1.6 4.8 97 0.2 NNW 13 15 7 8 1019.3 1019.4 1.2
02/08:00pm 5.5 1.9 5.1 97 0.2 NNW 13 15 7 8 1019.0 1019.1 1.2
02/07:30pm 4.8 1.8 4.2 96 0.3 NNW 9 11 5 6 1018.8 1018.9 1.2
02/07:00pm 5.3 2.0 4.7 96 0.3 NNW 11 13 6 7 1018.4 1018.5 1.0
02/06:30pm 5.5 2.6 4.6 94 0.4 NW 9 11 5 6 1018.2 1018.3 1.0
02/06:00pm 6.5 3.6 4.8 89 0.7 NW 9 11 5 6 1018.0 1018.1 1.0
02/05:30pm 9.1 5.9 6.7 85 1.1 WNW 13 17 7 9 1017.5 1017.6 1.0
02/05:00pm 9.5 6.0 7.3 86 1.0 WNW 15 19 8 10 1017.4 1017.5 1.0
02/04:30pm 9.6 5.7 6.9 83 1.3 WNW 17 22 9 12 1017.0 1017.1 1.0
02/04:00pm 10.5 5.4 7.7 83 1.3 WNW 24 33 13 18 1016.8 1016.9 1.0
02/03:30pm 10.4 6.2 7.3 81 1.5 WNW 19 24 10 13 1016.5 1016.5 0.8
02/03:00pm 9.9 6.3 8.3 90 0.8 W 17 28 9 15 1016.3 1016.3 0.8
02/02:30pm 11.0 6.6 7.3 78 1.8 WNW 20 30 11 16 1015.9 1015.9 0.4
02/02:00pm 12.0 7.7 7.9 76 2.0 WNW 20 30 11 16 1015.7 1015.7 0.4
02/01:30pm 11.4 7.8 8.3 81 1.5 NW 17 24 9 13 1015.7 1015.7 0.4
02/01:00pm 10.2 4.6 7.1 81 1.5 NW 26 32 14 17 1016.0 1016.0 0.2
02/12:30pm 11.7 8.0 8.0 78 1.8 NW 17 22 9 12 1015.9 1015.9 0.0
02/12:00pm 12.1 8.0 7.8 75 2.1 NNW 19 22 10 12 1016.0 1016.0 0.0
02/11:30am 12.1 8.4 7.8 75 2.1 NW 17 24 9 13 1016.0 1016.0 0.0
02/11:00am 10.9 6.5 7.4 79 1.7 NW 20 26 11 14 1016.4 1016.4 0.0
02/10:30am 10.5 6.5 6.6 77 1.8 NNW 17 22 9 12 1016.0 1016.0 0.0
02/10:00am 9.6 6.4 7.0 84 1.2 NW 13 17 7 9 1015.9 1015.9 0.0
02/09:30am 8.9 4.7 7.5 91 0.7 WNW 19 24 10 13 1016.1 1016.1 0.0
02/09:00am 8.2 5.4 7.1 93 0.5 WNW 11 13 6 7 1015.5 1015.5 -
02/08:30am 8.3 4.9 7.7 96 0.3 NNW 15 19 8 10 1014.9 1014.9 -
02/08:00am 5.7 1.8 5.3 97 0.2 N 15 17 8 9 1014.3 1014.3 -
02/07:30am 5.5 1.6 5.2 98 0.1 N 15 19 8 10 1014.1 1014.1 -
02/07:00am 5.3 1.7 4.9 97 0.2 N 13 17 7 9 1013.6 1013.6 -
02/06:30am 5.2 1.6 4.8 97 0.2 N 13 17 7 9 1013.2 1013.2 -
02/06:00am 5.3 1.7 4.9 97 0.2 N 13 15 7 8 1012.7 1012.7 -
02/05:30am 5.5 1.9 4.9 96 0.3 N 13 15 7 8 1012.4 1012.4 -
02/05:00am 6.0 3.7 5.7 98 0.1 WNW 7 13 4 7 1012.2 1012.2 -
02/04:30am 5.2 1.9 4.8 97 0.2 NNW 11 13 6 7 1011.6 1011.6 -
02/04:00am 5.2 1.9 4.5 95 0.3 NNW 11 15 6 8 1011.4 1011.4 -
02/03:30am 7.1 4.6 6.4 95 0.3 WNW 9 17 5 9 1011.3 1011.3 -
02/03:00am 7.7 3.1 6.5 92 0.6 NW 20 26 11 14 1011.1 1011.1 -
02/02:30am 8.4 3.4 6.5 88 0.9 NW 22 33 12 18 1010.3 1010.3 -
02/02:00am 8.4 4.5 7.3 93 0.5 NW 17 24 9 13 1010.3 1010.3 -
02/01:30am 8.9 2.6 7.5 91 0.7 WNW 30 46 16 25 1010.2 1010.2 -
02/01:24am 9.0 3.1 7.6 91 0.7 WNW 28 46 15 25 1010.2 1010.2 -
02/01:00am 8.9 4.8 7.7 92 0.6 NW 19 24 10 13 1009.4 1009.4 5.2
02/12:30am 9.3 5.1 8.4 94 0.4 NW 20 32 11 17 1009.2 1009.2 5.2
02/12:00am 9.4 4.8 8.3 93 0.5 NW 22 30 12 16 1009.3 1009.3 4.4
 
Date/Time
CST
Temp
°C
App
Temp
°C
Dew
Point
°C
Rel
Hum
%
Delta-T
°C
Wind Press
QNH
hPa
Press
MSL
hPa
Rain since
9am
mm
Dir  Spd
km/h
Gust
km/h
Spd
kts
Gust
kts
01/11:30pm 9.1 4.8 8.0 93 0.5 NW 20 24 11 13 1008.8 1008.8 4.4
01/11:00pm 8.9 4.6 7.7 92 0.6 NNW 20 28 11 15 1008.2 1008.2 4.2
01/10:30pm 9.4 4.6 7.3 87 1.0 NW 22 30 12 16 1008.2 1008.2 4.2
01/10:00pm 9.4 3.6 7.8 90 0.8 NNW 28 37 15 20 1007.8 1007.8 4.2
01/09:31pm 9.9 3.2 8.2 89 0.8 NW 33 54 18 29 1008.1 1008.1 4.2
01/09:30pm 9.9 2.8 8.2 89 0.8 NW 35 54 19 29 1008.1 1008.1 4.2
01/09:19pm 10.1 4.1 8.5 90 0.8 NNW 30 48 16 26 1008.3 1008.3 4.0
01/09:00pm 10.0 4.4 8.8 92 0.6 NNW 28 33 15 18 1007.8 1007.8 4.0
01/08:30pm 9.7 4.0 8.5 92 0.6 NNW 28 37 15 20 1007.7 1007.7 3.8
01/08:00pm 9.5 4.5 7.9 90 0.8 NW 24 32 13 17 1007.9 1007.9 3.4
01/07:40pm 9.7 3.0 7.5 86 1.0 WNW 32 50 17 27 1008.1 1008.1 2.6
01/07:30pm 10.4 3.3 8.0 85 1.2 WNW 35 48 19 26 1008.2 1008.2 1.8
01/07:00pm 10.9 5.2 9.8 93 0.6 W 30 43 16 23 1007.4 1007.4 1.4
01/06:30pm 11.2 6.1 9.1 87 1.1 WSW 26 37 14 20 1006.5 1006.5 0.0
01/06:01pm 13.9 9.1 7.2 64 3.3 WNW 22 59 12 32 1005.2 1005.2 0.0
01/06:00pm 14.9 10.7 7.5 61 3.7 NW 19 59 10 32 1005.2 1005.2 0.0
01/05:30pm 15.1 11.5 6.9 58 4.0 NW 15 19 8 10 1004.2 1004.2 0.0
01/05:00pm 15.9 12.2 6.1 52 4.7 NNW 15 19 8 10 1004.2 1004.2 0.0
01/04:30pm 17.7 13.0 5.0 43 6.1 N 19 30 10 16 1004.2 1004.2 0.0
01/04:00pm 17.6 13.0 5.5 45 5.9 N 19 24 10 13 1004.2 1004.2 0.0

Other formats

Comma delimited format used in spreadsheet applications
http://www.bom.gov.au/fwo/IDS60801/IDS60801.95815.axf

JavaScript Object Notation format (JSON) in row-major order
http://www.bom.gov.au/fwo/IDS60801/IDS60801.95815.json

Data quality

Most of these data are generated automatically and are frequently updated. Quality checks on data are not normally performed. It is possible for incorrect values to appear. Refer to information at About Latest Weather Observations and please check the disclaimer before using these data.